Terminal Aerodrome Forecast
Issued by NWS

Home | Current Version | Previous Version | Text Only | Print | Product List | Glossary On
Versions: 1 2 3 4 5 6 7 8 9 10 11 12 13 14 15 16 17 18 19 20
000
FTUS46 KSEW 011100
TAFOLM
TAF
KOLM 011120Z 0112/0212 00000KT P6SM FEW022 OVC080
      TEMPO 0113/0116 BKN022 OVC080
     FM011700 22005KT P6SM BKN040 BKN080
     FM011900 24006KT P6SM SCT050
     FM020000 29006KT P6SM BKN050
     FM020500 21005KT P6SM BKN030
     FM020800 20004KT P6SM OVC015=

USA.gov is the U.S. government's official web portal to all federal, state and local government web resources and services.